Time;durP1;ratioP1;P1;durP2;ratioP2;P2;SDS_P1;SDS_P2;PMS_P1;PMS_P2;Temp;Humidity;BMP_temperature;BMP_pressure;BME280_temperature;BME280_humidity;BME280_pressure;Samples;Min_cycle;Max_cycle;Signal;HPM_P1;HPM_P2
2021/04/29 00:02:11;;;;;;;50.50;45.28;;;;;;;14.69;90.61;99871.53;5074280;28;20487;-78
2021/04/29 00:05:22;;;;;;;50.55;44.05;;;;;;;14.61;90.39;99871.53;5074239;28;20483;-81
2021/04/29 00:08:26;;;;;;;50.78;43.88;;;;;;;14.61;90.69;99871.53;5074220;28;20052;-80
2021/04/29 00:11:32;;;;;;;49.25;43.70;;;;;;;14.58;90.32;99871.88;5073404;28;20055;-82
2021/04/29 00:14:37;;;;;;;50.25;44.13;;;;;;;14.54;90.40;99874.06;5074132;28;20060;-78
2021/04/29 00:17:42;;;;;;;47.88;41.78;;;;;;;14.56;90.72;99863.09;5075903;28;20047;-79
2021/04/29 00:20:46;;;;;;;50.88;44.22;;;;;;;14.51;90.71;99862.78;5075225;28;20403;-82
2021/04/29 00:24:04;;;;;;;48.72;43.55;;;;;;;14.53;90.40;99858.88;5073331;28;20059;-81
2021/04/29 00:27:08;;;;;;;48.10;42.95;;;;;;;14.45;90.70;99864.28;5073836;28;20047;-78
2021/04/29 00:30:13;;;;;;;48.55;42.30;;;;;;;14.50;90.45;99853.81;5074026;28;20052;-81
2021/04/29 00:33:17;;;;;;;49.75;43.83;;;;;;;14.55;90.27;99866.81;5073431;28;20051;-78
2021/04/29 00:36:22;;;;;;;50.03;43.15;;;;;;;14.52;90.31;99859.88;5073526;28;20055;-81
2021/04/29 00:39:26;;;;;;;49.05;43.58;;;;;;;14.50;90.44;99864.63;5084672;28;20055;-76
2021/04/29 00:42:31;;;;;;;47.00;41.78;;;;;;;14.51;90.28;99865.47;5073830;28;20494;-80
2021/04/29 00:45:36;;;;;;;50.80;45.35;;;;;;;14.48;90.37;99863.09;5073824;28;20181;-79
2021/04/29 00:48:41;;;;;;;48.75;41.67;;;;;;;14.49;90.63;99868.34;5084804;28;20092;-78
2021/04/29 00:51:46;;;;;;;49.30;44.05;;;;;;;14.47;90.62;99854.16;5073748;28;20155;-80
2021/04/29 00:54:51;;;;;;;48.28;43.05;;;;;;;14.41;90.69;99859.41;5073576;28;20059;-78
2021/04/29 00:57:55;;;;;;;49.40;43.97;;;;;;;14.43;90.78;99851.97;5073698;28;20060;-81
2021/04/29 01:00:59;;;;;;;50.28;42.13;;;;;;;14.44;91.24;99859.91;5073611;28;20047;-79
2021/04/29 01:04:26;;;;;;;53.45;44.42;;;;;;;14.41;90.97;99857.56;5084382;28;20052;-82
2021/04/29 01:07:39;;;;;;;50.15;43.58;;;;;;;14.40;90.88;99858.56;5073513;28;20055;-80
2021/04/29 01:10:47;;;;;;;50.67;43.92;;;;;;;14.47;91.10;99866.84;5072747;28;20048;-78
2021/04/29 01:13:55;;;;;;;48.55;42.63;;;;;;;14.52;90.58;99873.38;5073502;28;20048;-78
2021/04/29 01:17:01;;;;;;;47.75;42.22;;;;;;;14.56;90.77;99872.06;5073559;28;20048;-78
2021/04/29 01:20:07;;;;;;;51.10;43.65;;;;;;;14.58;90.24;99866.47;5073561;28;20052;-83
2021/04/29 01:23:24;;;;;;;46.80;41.72;;;;;;;14.57;90.17;99868.31;5072710;28;20056;-78
2021/04/29 01:26:31;;;;;;;55.67;45.40;;;;;;;14.57;89.90;99873.72;5073696;28;20040;-78
2021/04/29 01:29:37;;;;;;;48.88;42.10;;;;;;;14.55;90.21;99873.06;5073601;28;20048;-81
2021/04/29 01:32:44;;;;;;;47.55;42.42;;;;;;;14.54;90.06;99879.47;5072562;28;20048;-83
2021/04/29 01:35:48;;;;;;;51.28;44.60;;;;;;;14.51;90.77;99871.72;5071894;28;20403;-83
2021/04/29 01:38:53;;;;;;;50.65;44.03;;;;;;;14.49;90.21;99868.34;5072560;28;20052;-81
2021/04/29 01:41:59;;;;;;;49.78;44.30;;;;;;;14.45;90.88;99860.75;5073260;28;20391;-78
2021/04/29 01:45:05;;;;;;;49.28;43.90;;;;;;;14.43;90.73;99866.31;5073329;28;20419;-79
2021/04/29 01:48:10;;;;;;;49.25;43.80;;;;;;;14.42;90.89;99870.03;5084015;28;20111;-80
2021/04/29 01:51:15;;;;;;;48.63;42.83;;;;;;;14.44;90.80;99873.44;5073468;28;20387;-79
2021/04/29 01:54:22;;;;;;;49.65;42.20;;;;;;;14.43;91.01;99877.13;5073704;28;20055;-81
2021/04/29 01:57:27;;;;;;;47.92;42.80;;;;;;;14.41;91.30;99876.47;5073325;28;20051;-81
2021/04/29 02:00:32;;;;;;;49.42;44.20;;;;;;;14.44;90.84;99869.88;5073642;28;20060;-79
2021/04/29 02:03:38;;;;;;;49.42;43.50;;;;;;;14.45;91.25;99868.84;5072306;28;20059;-79
2021/04/29 02:06:44;;;;;;;48.67;43.03;;;;;;;14.43;90.71;99879.81;5073357;28;20067;-77
2021/04/29 02:09:49;;;;;;;48.67;41.60;;;;;;;14.43;90.81;99874.44;5076195;28;20396;-80
2021/04/29 02:12:56;;;;;;;50.28;43.83;;;;;;;14.46;90.53;99875.94;5076789;28;20055;-77
2021/04/29 02:16:15;;;;;;;49.58;44.22;;;;;;;14.41;90.58;99868.34;5076591;28;20047;-77
2021/04/29 02:19:23;;;;;;;48.80;43.55;;;;;;;14.45;91.29;99877.78;5075793;28;20115;-78
2021/04/29 02:22:28;;;;;;;50.92;43.58;;;;;;;14.47;90.92;99873.06;5076335;28;20063;-80
2021/04/29 02:25:33;;;;;;;50.13;43.60;;;;;;;14.51;91.14;99870.88;5076332;28;20048;-78
2021/04/29 02:28:38;;;;;;;50.47;44.90;;;;;;;14.55;90.70;99870.34;5076365;28;20379;-83
2021/04/29 02:31:54;;;;;;;48.42;43.00;;;;;;;14.53;90.50;99874.25;5076292;28;20356;-78
2021/04/29 02:35:02;;;;;;;50.67;43.80;;;;;;;14.49;90.49;99873.75;5075964;28;20039;-83
2021/04/29 02:38:07;;;;;;;47.40;42.20;;;;;;;14.52;90.96;99877.94;5074911;28;20154;-81
2021/04/29 02:41:11;;;;;;;49.15;43.60;;;;;;;14.44;91.00;99883.38;5076129;28;20052;-83
2021/04/29 02:44:18;;;;;;;49.65;42.65;;;;;;;14.43;91.09;99889.78;5075662;28;20485;-82
2021/04/29 02:47:23;;;;;;;51.05;43.60;;;;;;;14.45;91.36;99887.75;5075942;28;20478;-79
2021/04/29 02:50:28;;;;;;;49.03;43.65;;;;;;;14.49;90.97;99897.22;5075981;28;20051;-81
2021/04/29 02:53:37;;;;;;;50.03;44.38;;;;;;;14.40;91.05;99885.56;5075090;28;20055;-78
2021/04/29 02:56:42;;;;;;;50.60;45.10;;;;;;;14.37;91.61;99880.50;5075534;28;20056;-80
2021/04/29 02:59:50;;;;;;;48.30;43.03;;;;;;;14.40;91.71;99885.56;5075661;28;20055;-82
2021/04/29 03:02:55;;;;;;;46.90;41.97;;;;;;;14.41;91.35;99887.25;5074987;28;20056;-77
2021/04/29 03:05:59;;;;;;;48.00;43.03;;;;;;;14.48;91.16;99890.13;5074473;28;20510;-78
2021/04/29 03:09:06;;;;;;;47.92;42.72;;;;;;;14.39;91.36;99883.91;5086313;28;20415;-79
2021/04/29 03:12:11;;;;;;;51.08;43.70;;;;;;;14.38;91.44;99882.19;5075589;28;20375;-78
2021/04/29 03:15:22;;;;;;;50.33;42.22;;;;;;;14.38;91.09;99876.78;5075394;28;20048;-82
2021/04/29 03:18:35;;;;;;;47.50;42.40;;;;;;;14.36;91.80;99884.22;5075024;28;20479;-79
2021/04/29 03:21:40;;;;;;;49.78;42.55;;;;;;;14.32;91.40;99883.72;5075482;28;20043;-79
2021/04/29 03:24:44;;;;;;;47.75;42.75;;;;;;;14.31;91.54;99879.34;5075181;28;20056;-79
2021/04/29 03:27:49;;;;;;;45.10;40.28;;;;;;;14.33;91.31;99882.72;5074876;28;20085;-79
2021/04/29 03:30:54;;;;;;;47.67;42.25;;;;;;;14.32;91.41;99881.00;5074569;28;20052;-83
2021/04/29 03:33:58;;;;;;;45.63;40.80;;;;;;;14.30;91.50;99879.47;5085434;28;20072;-83
2021/04/29 03:37:03;;;;;;;51.78;43.88;;;;;;;14.28;91.70;99886.88;5100614;28;20107;-79
2021/04/29 03:40:09;;;;;;;47.58;42.47;;;;;;;14.32;91.73;99893.66;5104594;28;20455;-79
2021/04/29 03:43:13;;;;;;;47.42;42.28;;;;;;;14.33;91.35;99884.56;5092526;28;20178;-82
2021/04/29 03:46:18;;;;;;;44.80;40.20;;;;;;;14.35;91.73;99879.81;5093383;28;20055;-79
2021/04/29 03:49:22;;;;;;;46.47;41.00;;;;;;;14.39;91.59;99889.28;5093001;28;20051;-79
2021/04/29 03:52:27;;;;;;;45.75;40.78;;;;;;;14.38;90.96;99895.69;5093429;28;20059;-79
2021/04/29 03:55:31;;;;;;;45.97;40.97;;;;;;;14.35;91.11;99901.44;5100420;28;20525;-79
2021/04/29 03:58:36;;;;;;;44.50;39.30;;;;;;;14.36;90.97;99903.13;5112802;28;20576;-79
2021/04/29 04:01:41;;;;;;;47.30;42.10;;;;;;;14.34;91.68;99907.84;5113068;28;20050;-78
2021/04/29 04:04:45;;;;;;;52.78;43.88;;;;;;;14.35;91.38;99896.03;5112622;28;20105;-79
2021/04/29 04:07:49;;;;;;;46.40;40.30;;;;;;;14.39;91.57;99902.78;5101580;28;20092;-78
2021/04/29 04:10:54;;;;;;;45.03;39.63;;;;;;;14.42;91.83;99894.31;5091761;28;20051;-79
2021/04/29 04:13:58;;;;;;;47.08;41.95;;;;;;;14.47;91.41;99891.97;5085106;28;20047;-78
2021/04/29 04:17:02;;;;;;;47.22;42.17;;;;;;;14.47;90.96;99891.16;5073670;28;20510;-79
2021/04/29 04:20:07;;;;;;;49.33;43.67;;;;;;;14.38;91.16;99898.41;5074052;28;20052;-78
2021/04/29 04:23:12;;;;;;;51.13;45.53;;;;;;;14.31;91.30;99900.94;5074304;28;20051;-79
2021/04/29 04:26:17;;;;;;;50.05;43.35;;;;;;;14.29;91.69;99905.59;5072687;28;20055;-77
2021/04/29 04:29:21;;;;;;;49.17;43.63;;;;;;;14.25;92.24;99903.41;5074016;28;20375;-78
2021/04/29 04:32:26;;;;;;;48.13;41.28;;;;;;;14.26;92.58;99900.56;5080880;28;20047;-78
2021/04/29 04:35:31;;;;;;;51.92;44.53;;;;;;;14.25;92.43;99898.03;5093218;28;20062;-77
2021/04/29 04:38:35;;;;;;;51.20;44.22;;;;;;;14.20;92.68;99897.69;5093885;28;20051;-78
2021/04/29 04:41:41;;;;;;;54.83;45.22;;;;;;;14.25;92.97;99900.72;5094105;28;20055;-79
2021/04/29 04:44:45;;;;;;;50.65;43.42;;;;;;;14.30;93.08;99907.34;5092842;28;20048;-79
2021/04/29 04:47:50;;;;;;;50.10;43.05;;;;;;;14.37;92.69;99912.91;5094179;28;20059;-79
2021/04/29 04:50:54;;;;;;;49.45;43.85;;;;;;;14.42;92.25;99915.94;5094136;28;20367;-78
2021/04/29 04:53:59;;;;;;;49.45;42.83;;;;;;;14.50;92.04;99923.19;5093985;28;20043;-78
2021/04/29 04:57:04;;;;;;;49.38;43.88;;;;;;;14.52;92.11;99916.59;5093878;28;20043;-79
2021/04/29 05:00:09;;;;;;;48.15;42.55;;;;;;;14.53;91.91;99907.50;5092798;28;20051;-78
2021/04/29 05:03:14;;;;;;;51.53;45.78;;;;;;;14.57;91.58;99908.81;5093809;28;20043;-78
2021/04/29 05:06:18;;;;;;;53.67;46.55;;;;;;;14.51;92.01;99916.78;5093361;28;20043;-80
2021/04/29 05:09:23;;;;;;;87.82;74.05;;;;;;;14.55;91.84;99915.41;5093096;28;20047;-79
2021/04/29 05:12:27;;;;;;;60.10;49.13;;;;;;;14.60;91.63;99915.75;5093947;28;20089;-80
2021/04/29 05:15:33;;;;;;;57.28;47.90;;;;;;;14.58;91.83;99917.78;5093891;28;20051;-79
2021/04/29 05:18:37;;;;;;;52.33;45.58;;;;;;;14.65;92.04;99921.47;5094022;28;20051;-79
2021/04/29 05:21:42;;;;;;;51.55;43.63;;;;;;;14.76;91.13;99916.56;5093133;28;20067;-79
2021/04/29 05:24:46;;;;;;;50.65;45.10;;;;;;;14.86;90.84;99928.03;5093792;28;20055;-79
2021/04/29 05:27:52;;;;;;;53.67;47.50;;;;;;;14.95;90.50;99916.19;5093866;28;20059;-80
2021/04/29 05:30:56;;;;;;;51.30;45.75;;;;;;;15.10;90.38;99910.06;5093738;28;20055;-80
2021/04/29 05:34:02;;;;;;;54.08;47.17;;;;;;;15.27;89.88;99907.13;5093946;28;20387;-79
2021/04/29 05:37:07;;;;;;;52.22;43.55;;;;;;;15.50;89.03;99918.03;5093482;28;20055;-79
2021/04/29 05:40:12;;;;;;;44.92;39.90;;;;;;;15.66;88.68;99928.75;5093815;28;20047;-79
2021/04/29 05:43:16;;;;;;;50.58;44.17;;;;;;;15.70;88.17;99930.13;5096995;28;20055;-80
2021/04/29 05:46:21;;;;;;;53.00;47.25;;;;;;;15.74;87.12;99925.19;5097682;28;20093;-80
2021/04/29 05:49:26;;;;;;;57.85;51.65;;;;;;;15.72;86.96;99929.94;5097499;28;20051;-79
2021/04/29 05:52:31;;;;;;;61.20;54.85;;;;;;;15.72;86.59;99938.91;5093625;28;20410;-81
2021/04/29 05:55:35;;;;;;;61.53;55.22;;;;;;;15.66;86.96;99942.28;5097735;28;20059;-78
2021/04/29 05:58:40;;;;;;;60.65;54.20;;;;;;;15.65;87.26;99947.91;5096292;28;20051;-80
2021/04/29 06:01:44;;;;;;;60.35;53.85;;;;;;;15.73;86.97;99945.97;5097237;28;20063;-80
2021/04/29 06:04:49;;;;;;;61.20;54.80;;;;;;;15.80;86.97;99933.41;5097128;28;20059;-81
2021/04/29 06:07:59;;;;;;;59.90;52.53;;;;;;;15.81;86.31;99937.81;5097737;28;20043;-81
2021/04/29 06:11:03;;;;;;;57.83;52.00;;;;;;;15.91;86.63;99935.72;5094664;28;20517;-79
2021/04/29 06:14:10;;;;;;;58.33;52.08;;;;;;;15.98;86.07;99939.41;5090481;28;20498;-78
2021/04/29 06:17:15;;;;;;;59.42;53.42;;;;;;;15.95;85.69;99941.63;5097160;28;20051;-79
2021/04/29 06:20:19;;;;;;;60.67;54.25;;;;;;;15.96;85.73;99940.59;5096900;28;20513;-78
2021/04/29 06:23:23;;;;;;;60.03;53.47;;;;;;;16.01;85.56;99930.94;5098135;28;20067;-78
2021/04/29 06:26:30;;;;;;;61.63;54.53;;;;;;;16.06;85.59;99938.50;5097729;28;20055;-78
2021/04/29 06:29:35;;;;;;;61.25;54.13;;;;;;;16.21;85.28;99942.97;5097430;28;20048;-78
2021/04/29 06:32:42;;;;;;;58.47;52.60;;;;;;;16.29;84.67;99942.88;5092765;28;20059;-78
2021/04/29 06:35:47;;;;;;;59.85;53.38;;;;;;;16.36;84.47;99937.59;5096035;28;20051;-81
2021/04/29 06:38:51;;;;;;;61.45;55.00;;;;;;;16.36;84.18;99937.59;5096453;28;20051;-78
2021/04/29 06:41:57;;;;;;;61.92;55.33;;;;;;;16.24;84.70;99936.34;5093325;28;20055;-77
2021/04/29 06:45:02;;;;;;;62.45;56.05;;;;;;;16.12;85.37;99944.03;5092969;28;20051;-77
2021/04/29 06:48:10;;;;;;;58.45;52.47;;;;;;;16.19;84.50;99946.88;5092885;28;20052;-77
2021/04/29 06:51:15;;;;;;;61.83;55.17;;;;;;;16.20;84.69;99954.81;5092800;28;20051;-77
2021/04/29 06:54:20;;;;;;;65.10;58.20;;;;;;;16.13;84.83;99953.84;5091951;28;20513;-77
2021/04/29 06:57:24;;;;;;;63.80;57.15;;;;;;;16.19;84.39;99947.72;5095565;28;20047;-77
2021/04/29 07:00:28;;;;;;;64.18;57.90;;;;;;;16.27;84.07;99939.53;5095299;28;20047;-77
2021/04/29 07:03:33;;;;;;;67.53;60.58;;;;;;;16.37;83.57;99938.44;5095968;28;20055;-77
2021/04/29 07:06:37;;;;;;;64.97;58.45;;;;;;;16.50;83.51;99934.09;5095673;28;20055;-77
2021/04/29 07:09:43;;;;;;;66.22;59.33;;;;;;;16.84;82.35;99931.75;5095631;28;20059;-77
2021/04/29 07:12:47;;;;;;;64.43;57.80;;;;;;;17.12;81.30;99937.41;5095597;28;20051;-77
2021/04/29 07:15:52;;;;;;;64.22;57.67;;;;;;;17.23;80.15;99941.53;5095495;28;20067;-77
2021/04/29 07:18:59;;;;;;;63.83;57.22;;;;;;;17.60;79.04;99932.44;5095743;28;20051;-78
2021/04/29 07:22:04;;;;;;;65.05;58.33;;;;;;;17.39;79.31;99938.59;5095657;28;20060;-77
2021/04/29 07:25:08;;;;;;;67.55;60.72;;;;;;;17.05;80.13;99943.75;5095546;28;20062;-81
2021/04/29 07:28:13;;;;;;;68.70;61.80;;;;;;;16.66;82.36;99941.28;5094825;28;20059;-77
2021/04/29 07:31:17;;;;;;;70.72;63.72;;;;;;;16.47;83.66;99939.88;5083148;28;20051;-77
2021/04/29 07:34:22;;;;;;;72.70;65.30;;;;;;;16.24;84.25;99937.16;5095500;28;20043;-77
2021/04/29 07:37:26;;;;;;;72.35;64.90;;;;;;;16.08;85.11;99948.13;5093912;28;20059;-77
2021/04/29 07:40:32;;;;;;;73.13;65.47;;;;;;;16.14;85.50;99954.69;5094274;28;20506;-82
2021/04/29 07:43:37;;;;;;;74.72;66.85;;;;;;;15.99;85.99;99962.75;5095206;28;20039;-78
2021/04/29 07:46:41;;;;;;;74.70;66.75;;;;;;;15.92;86.09;99955.53;5095387;28;20051;-76
2021/04/29 07:49:46;;;;;;;74.75;66.88;;;;;;;15.97;86.67;99962.06;5095114;28;20039;-76
2021/04/29 07:52:50;;;;;;;73.43;65.88;;;;;;;15.92;86.99;99959.09;5094870;28;20047;-76
2021/04/29 07:55:56;;;;;;;73.72;66.20;;;;;;;15.87;87.10;99958.78;5095296;28;20077;-76
2021/04/29 07:59:00;;;;;;;73.70;65.28;;;;;;;15.79;87.61;99963.38;5094758;28;20047;-76
2021/04/29 08:02:05;;;;;;;74.32;66.55;;;;;;;15.72;87.88;99960.53;5094515;28;20043;-76
2021/04/29 08:05:13;;;;;;;75.20;66.93;;;;;;;15.85;87.68;99966.19;5094649;28;20397;-76
2021/04/29 08:08:18;;;;;;;75.15;67.18;;;;;;;15.92;87.83;99975.31;5094034;28;20043;-76
2021/04/29 08:11:23;;;;;;;71.72;63.90;;;;;;;16.05;86.95;99972.84;5094777;28;20059;-76
2021/04/29 08:14:27;;;;;;;71.55;64.15;;;;;;;16.12;86.09;99971.09;5094730;28;20051;-76
2021/04/29 08:17:32;;;;;;;71.93;64.32;;;;;;;16.31;85.84;99979.78;5094659;28;20062;-76
2021/04/29 08:20:38;;;;;;;67.72;60.67;;;;;;;16.40;85.09;99986.81;5094661;28;20055;-76
2021/04/29 08:23:43;;;;;;;67.88;60.97;;;;;;;16.45;84.06;99990.69;5094504;28;20051;-76
2021/04/29 08:26:48;;;;;;;68.55;61.50;;;;;;;16.56;83.61;99990.31;5093989;28;20497;-77
2021/04/29 08:29:55;;;;;;;66.53;59.33;;;;;;;16.66;82.88;99987.34;5094378;28;20055;-76
2021/04/29 08:33:02;;;;;;;66.50;59.72;;;;;;;17.07;81.74;99985.06;5094194;28;20474;-77
2021/04/29 08:36:08;;;;;;;63.13;56.75;;;;;;;17.54;78.77;99972.88;5081080;28;20060;-76
2021/04/29 08:39:13;;;;;;;64.28;57.67;;;;;;;17.97;77.00;99970.28;5093569;28;20066;-76
2021/04/29 08:42:17;;;;;;;62.50;56.25;;;;;;;18.47;75.24;99972.06;5093520;28;20378;-76
2021/04/29 08:45:23;;;;;;;62.40;55.97;;;;;;;18.47;74.24;99975.63;5093229;28;20070;-77
2021/04/29 08:48:27;;;;;;;60.58;54.17;;;;;;;18.48;74.21;99974.63;5094191;28;20505;-78
2021/04/29 08:51:37;;;;;;;60.47;54.28;;;;;;;18.29;75.18;99972.50;5094064;28;20071;-79
2021/04/29 08:54:47;;;;;;;60.97;54.75;;;;;;;17.96;76.13;99980.28;5093863;28;20047;-78
2021/04/29 08:57:52;;;;;;;58.90;53.05;;;;;;;17.79;77.33;99972.56;5093631;28;20060;-77
2021/04/29 09:01:04;;;;;;;62.55;55.95;;;;;;;17.85;77.40;99979.94;5092613;28;20039;-85
2021/04/29 09:04:20;;;;;;;62.75;56.38;;;;;;;17.64;78.31;99985.31;5093499;28;20051;-82
2021/04/29 09:07:24;;;;;;;63.28;56.35;;;;;;;17.69;78.77;99980.16;5093080;28;20490;-75
2021/04/29 09:10:41;;;;;;;61.05;54.80;;;;;;;17.59;78.39;99979.59;5093552;28;20391;-82
2021/04/29 09:14:03;;;;;;;62.67;56.00;;;;;;;17.55;79.28;99979.97;5093557;28;20039;-84
2021/04/29 09:17:09;;;;;;;61.58;55.38;;;;;;;17.40;78.89;99987.28;5095004;28;20067;-77
2021/04/29 09:20:13;;;;;;;61.35;54.88;;;;;;;17.35;79.33;99988.84;5097654;28;20047;-83
2021/04/29 09:23:21;;;;;;;57.15;50.92;;;;;;;17.25;78.98;99991.84;5097635;28;20047;-77
2021/04/29 09:26:39;;;;;;;57.55;51.63;;;;;;;17.13;79.86;99992.50;5097707;28;20621;-85
2021/04/29 09:29:55;;;;;;;56.20;50.28;;;;;;;17.02;79.93;99999.19;5096264;28;20491;-77
2021/04/29 09:33:01;;;;;;;56.38;50.63;;;;;;;16.92;80.20;99999.47;5096448;28;20047;-78
2021/04/29 09:36:08;;;;;;;58.75;52.63;;;;;;;16.86;80.63;99999.38;5097085;28;20047;-77
2021/04/29 09:39:18;;;;;;;58.40;50.95;;;;;;;16.94;80.14;99996.56;5097355;28;20071;-85
2021/04/29 09:42:38;;;;;;;58.10;51.45;;;;;;;16.97;79.26;99992.63;5097098;28;20058;-77
2021/04/29 09:45:42;;;;;;;60.42;54.28;;;;;;;17.07;78.88;99983.22;5096971;28;20502;-84
2021/04/29 09:48:49;;;;;;;62.63;56.10;;;;;;;17.16;79.03;99995.66;5097056;28;20047;-84
2021/04/29 09:51:55;;;;;;;67.22;60.22;;;;;;;17.14;79.32;99992.28;5096930;28;20110;-80
2021/04/29 09:55:04;;;;;;;63.95;57.38;;;;;;;17.17;79.48;99986.50;5096914;28;20047;-77
2021/04/29 09:58:14;;;;;;;66.28;59.33;;;;;;;17.13;78.83;99990.63;5097140;28;20047;-77
2021/04/29 10:01:18;;;;;;;70.97;63.55;;;;;;;17.31;78.99;99991.09;5096059;28;20043;-81
2021/04/29 10:04:27;;;;;;;71.28;63.88;;;;;;;17.45;78.52;99994.84;5095808;28;20115;-84
2021/04/29 10:07:33;;;;;;;71.47;64.20;;;;;;;17.70;77.54;99993.53;5096131;28;20051;-77
2021/04/29 10:10:40;;;;;;;66.03;59.38;;;;;;;17.97;77.41;99987.38;5097460;28;20055;-77
2021/04/29 10:13:46;;;;;;;62.92;56.65;;;;;;;18.09;75.45;99982.31;5096830;28;20051;-85
2021/04/29 10:16:52;;;;;;;62.05;55.75;;;;;;;18.10;74.83;99984.84;5096656;28;20474;-84
2021/04/29 10:19:59;;;;;;;64.65;57.75;;;;;;;18.02;75.43;99984.13;5096569;28;20153;-77
2021/04/29 10:23:10;;;;;;;61.45;55.35;;;;;;;17.97;76.19;99979.25;5096010;28;20055;-77
2021/04/29 10:26:28;;;;;;;52.90;47.55;;;;;;;18.05;75.07;99979.13;5095446;28;20051;-80
2021/04/29 10:29:33;;;;;;;54.47;48.97;;;;;;;18.11;74.79;99980.25;5094969;28;20048;-84
2021/04/29 10:32:40;;;;;;;55.05;49.35;;;;;;;18.23;74.39;99973.28;5095368;28;20513;-77
2021/04/29 10:36:00;;;;;;;53.15;47.97;;;;;;;18.19;74.84;99972.81;5094762;28;20043;-77
2021/04/29 10:39:16;;;;;;;49.85;44.72;;;;;;;18.46;73.71;99982.13;5096215;28;20047;-78
2021/04/29 10:42:24;;;;;;;41.90;37.47;;;;;;;18.72;72.06;99974.19;5095999;28;20043;-78
2021/04/29 10:45:54;;;;;;;37.00;33.40;;;;;;;18.94;70.00;99966.00;5095772;28;20055;-78
2021/04/29 10:49:00;;;;;;;29.77;26.85;;;;;;;19.19;68.81;99969.94;5095294;28;20379;-78
2021/04/29 10:52:05;;;;;;;30.65;27.65;;;;;;;19.44;68.33;99960.28;5096032;28;20071;-77
2021/04/29 10:55:23;;;;;;;32.90;29.20;;;;;;;19.74;67.65;99953.53;5095363;28;20051;-77
2021/04/29 10:58:28;;;;;;;33.30;30.10;;;;;;;19.78;67.29;99960.25;5096326;28;20383;-77
2021/04/29 11:01:39;;;;;;;34.25;30.85;;;;;;;19.85;67.11;99949.41;5098707;28;20055;-81
2021/04/29 11:04:45;;;;;;;37.53;30.63;;;;;;;20.16;66.67;99948.84;5097071;28;20127;-85
2021/04/29 11:07:49;;;;;;;33.45;30.27;;;;;;;20.18;64.95;99946.75;5099410;28;20498;-79
2021/04/29 11:10:54;;;;;;;31.23;28.02;;;;;;;20.15;65.74;99949.91;5100513;28;20395;-78
2021/04/29 11:14:06;;;;;;;29.17;26.35;;;;;;;20.18;66.29;99938.56;5095243;28;20051;-78
2021/04/29 11:17:21;;;;;;;30.50;27.35;;;;;;;20.09;67.16;99930.59;5095266;28;20063;-77
2021/04/29 11:20:40;;;;;;;27.35;24.55;;;;;;;20.31;65.32;99938.63;5095253;28;20406;-86
2021/04/29 11:23:48;;;;;;;29.02;26.02;;;;;;;20.42;65.38;99930.66;5094397;28;20051;-78
2021/04/29 11:26:52;;;;;;;28.50;25.70;;;;;;;20.34;66.78;99914.53;5095029;28;20063;-79
2021/04/29 11:30:06;;;;;;;28.35;25.30;;;;;;;20.30;65.92;99920.59;5094327;28;20051;-80
2021/04/29 11:33:13;;;;;;;28.38;25.65;;;;;;;19.87;65.91;99920.91;5094220;28;20482;-79
2021/04/29 11:36:22;;;;;;;26.65;23.88;;;;;;;19.53;67.32;99926.41;5094764;28;20054;-78
2021/04/29 11:39:27;;;;;;;23.30;20.98;;;;;;;19.68;67.84;99924.38;5094753;28;20047;-78
2021/04/29 11:42:33;;;;;;;23.20;20.88;;;;;;;19.88;66.40;99919.84;5094754;28;20557;-78
2021/04/29 11:45:42;;;;;;;21.52;19.52;;;;;;;19.83;66.58;99914.16;5094716;28;20051;-78
2021/04/29 11:48:57;;;;;;;21.33;19.13;;;;;;;19.58;67.08;99915.75;5093867;28;20051;-78
2021/04/29 11:52:02;;;;;;;17.17;15.02;;;;;;;19.54;65.30;99922.66;5094441;28;20047;-79
2021/04/29 11:55:07;;;;;;;17.65;15.88;;;;;;;19.76;65.02;99918.75;5094672;28;20387;-85
2021/04/29 11:58:17;;;;;;;19.88;15.10;;;;;;;19.90;64.58;99919.66;5093817;28;20062;-79
2021/04/29 12:01:21;;;;;;;16.17;14.60;;;;;;;19.98;64.28;99917.56;5094495;28;20047;-77
2021/04/29 12:04:26;;;;;;;15.18;13.57;;;;;;;20.05;63.68;99915.69;5094488;28;20066;-84
2021/04/29 12:07:41;;;;;;;16.38;13.70;;;;;;;20.13;62.75;99918.22;5094149;28;20047;-77
2021/04/29 12:10:48;;;;;;;16.90;15.00;;;;;;;19.98;63.46;99920.28;5094451;28;20055;-85
2021/04/29 12:13:53;;;;;;;17.13;15.38;;;;;;;19.76;64.33;99917.91;5093454;28;20071;-77
2021/04/29 12:17:03;;;;;;;33.22;28.13;;;;;;;19.77;65.11;99901.38;5094293;28;20055;-77
2021/04/29 12:20:09;;;;;;;26.15;23.42;;;;;;;19.76;64.63;99899.69;5094224;28;20118;-82
2021/04/29 12:23:14;;;;;;;13.80;12.43;;;;;;;19.76;64.42;99894.25;5094010;28;20039;-81
2021/04/29 12:26:29;;;;;;;14.95;12.85;;;;;;;19.66;64.87;99895.66;5093683;28;20051;-78
2021/04/29 12:29:34;;;;;;;16.20;12.25;;;;;;;19.61;65.45;99898.16;5093186;28;20047;-78
2021/04/29 12:32:46;;;;;;;14.95;13.45;;;;;;;19.31;65.25;99903.88;5093957;28;20406;-82
2021/04/29 12:35:51;;;;;;;18.50;15.50;;;;;;;19.10;67.08;99901.25;5093360;28;20394;-78
2021/04/29 12:38:56;;;;;;;18.50;15.07;;;;;;;18.92;67.72;99898.19;5094080;28;20078;-77
2021/04/29 12:42:06;;;;;;;18.13;15.35;;;;;;;18.96;67.84;99895.94;5093192;28;20051;-77
2021/04/29 12:45:11;;;;;;;17.15;15.10;;;;;;;19.01;67.59;99888.03;5093792;28;20051;-84
2021/04/29 12:48:31;;;;;;;17.02;15.07;;;;;;;19.00;67.83;99894.47;5093464;28;20051;-78
2021/04/29 12:51:35;;;;;;;21.17;17.30;;;;;;;18.89;68.80;99897.78;5093259;28;20079;-79
2021/04/29 12:54:42;;;;;;;19.80;16.88;;;;;;;18.90;69.24;99892.13;5093793;28;20059;-77
2021/04/29 12:57:47;;;;;;;22.20;18.05;;;;;;;18.84;69.52;99890.19;5093480;28;20047;-82
2021/04/29 13:00:53;;;;;;;19.98;16.75;;;;;;;18.79;68.54;99882.63;5093062;28;20047;-79
2021/04/29 13:03:58;;;;;;;23.92;15.80;;;;;;;18.69;69.51;99887.56;5093532;28;20043;-78
2021/04/29 13:07:03;;;;;;;21.25;15.93;;;;;;;18.57;69.05;99886.44;5093474;28;20051;-78
2021/04/29 13:10:20;;;;;;;18.42;15.43;;;;;;;18.54;69.55;99878.69;5093338;28;20459;-78
2021/04/29 13:13:31;;;;;;;18.95;14.43;;;;;;;18.79;69.40;99881.78;5093575;28;20390;-77
2021/04/29 13:16:37;;;;;;;21.42;16.10;;;;;;;18.90;69.05;99878.53;5093531;28;20494;-77
2021/04/29 13:19:45;;;;;;;20.27;17.50;;;;;;;18.91;68.50;99873.94;5093625;28;20482;-83
2021/04/29 13:22:51;;;;;;;19.67;17.63;;;;;;;18.89;68.86;99873.31;5093167;28;20055;-77
2021/04/29 13:25:56;;;;;;;22.63;19.33;;;;;;;19.14;69.42;99869.03;5093344;28;20059;-78
2021/04/29 13:29:01;;;;;;;23.67;19.65;;;;;;;19.41;69.17;99871.72;5092998;28;20055;-77
2021/04/29 13:32:05;;;;;;;23.33;19.92;;;;;;;19.40;69.24;99874.66;5093984;28;20055;-78
2021/04/29 13:35:11;;;;;;;25.83;20.95;;;;;;;19.36;69.11;99868.75;5095655;28;20063;-79
2021/04/29 13:38:16;;;;;;;25.02;19.75;;;;;;;19.18;69.88;99867.59;5093312;28;20063;-84
2021/04/29 13:41:23;;;;;;;21.92;18.48;;;;;;;19.04;70.14;99866.69;5092397;28;20414;-77
2021/04/29 13:44:28;;;;;;;19.08;15.63;;;;;;;19.08;70.84;99870.69;5093302;28;20055;-78
2021/04/29 13:47:34;;;;;;;17.67;15.88;;;;;;;19.25;70.14;99871.19;5092469;28;20395;-77
2021/04/29 13:50:39;;;;;;;17.67;15.77;;;;;;;19.36;69.20;99865.16;5093318;28;20579;-81
2021/04/29 13:53:46;;;;;;;15.57;13.98;;;;;;;19.28;69.04;99871.59;5092360;28;20048;-77
2021/04/29 13:56:50;;;;;;;20.55;13.65;;;;;;;19.36;69.90;99868.75;5093063;28;20114;-77
2021/04/29 13:59:55;;;;;;;17.92;13.27;;;;;;;19.29;69.68;99869.72;5092979;28;20062;-76
2021/04/29 14:03:00;;;;;;;20.50;14.73;;;;;;;19.12;71.16;99866.53;5095955;28;20047;-76
2021/04/29 14:06:06;;;;;;;17.23;14.18;;;;;;;19.07;71.89;99862.72;5100401;28;20051;-78
2021/04/29 14:09:11;;;;;;;20.92;15.68;;;;;;;18.84;72.18;99861.13;5103816;28;20055;-78
2021/04/29 14:12:16;;;;;;;58.88;47.20;;;;;;;18.79;74.47;99857.31;5095857;28;20044;-77
2021/04/29 14:15:21;;;;;;;27.80;18.17;;;;;;;18.65;75.63;99855.56;5096638;28;20058;-77
2021/04/29 14:18:28;;;;;;;19.80;16.35;;;;;;;18.64;75.57;99859.31;5096635;28;20055;-84